sensor_id;sensor_type;location;lat;lon;timestamp;pressure;altitude;pressure_sealevel;temperature;humidity
23339;BME280;11841;49.368;20.962;2023-04-26T00:00:16;94909.88;;;6.90;88.39
23339;BME280;11841;49.368;20.962;2023-04-26T00:03:01;94925.69;;;6.90;88.81
23339;BME280;11841;49.368;20.962;2023-04-26T00:05:48;94917.56;;;6.92;89.11
23339;BME280;11841;49.368;20.962;2023-04-26T00:08:34;94918.78;;;6.89;89.52
23339;BME280;11841;49.368;20.962;2023-04-26T00:11:19;94907.47;;;6.82;89.57
23339;BME280;11841;49.368;20.962;2023-04-26T00:14:04;94915.38;;;6.82;89.77
23339;BME280;11841;49.368;20.962;2023-04-26T00:16:50;94912.75;;;6.89;89.57
23339;BME280;11841;49.368;20.962;2023-04-26T00:19:35;94924.88;;;6.90;89.68
23339;BME280;11841;49.368;20.962;2023-04-26T00:22:20;94928.91;;;6.92;89.61
23339;BME280;11841;49.368;20.962;2023-04-26T00:25:06;94914.34;;;6.90;88.82
23339;BME280;11841;49.368;20.962;2023-04-26T00:27:51;94918.16;;;6.94;88.42
23339;BME280;11841;49.368;20.962;2023-04-26T00:30:37;94940.72;;;6.83;89.25
23339;BME280;11841;49.368;20.962;2023-04-26T00:33:25;94953.91;;;6.83;89.57
23339;BME280;11841;49.368;20.962;2023-04-26T00:36:12;94943.97;;;6.79;90.72
23339;BME280;11841;49.368;20.962;2023-04-26T00:38:57;94953.34;;;6.75;91.35
23339;BME280;11841;49.368;20.962;2023-04-26T00:41:42;94969.53;;;6.78;91.49
23339;BME280;11841;49.368;20.962;2023-04-26T00:44:28;94960.44;;;6.74;90.38
23339;BME280;11841;49.368;20.962;2023-04-26T00:47:13;94952.53;;;6.74;91.25
23339;BME280;11841;49.368;20.962;2023-04-26T00:50:00;94957.78;;;6.74;91.10
23339;BME280;11841;49.368;20.962;2023-04-26T00:52:46;94966.50;;;6.75;90.74
23339;BME280;11841;49.368;20.962;2023-04-26T00:55:31;94961.25;;;6.75;90.83
23339;BME280;11841;49.368;20.962;2023-04-26T00:58:17;94968.75;;;6.71;91.26
23339;BME280;11841;49.368;20.962;2023-04-26T01:01:02;94974.63;;;6.73;91.19
23339;BME280;11841;49.368;20.962;2023-04-26T01:03:48;94971.41;;;6.71;89.77
23339;BME280;11841;49.368;20.962;2023-04-26T01:06:34;94976.88;;;6.70;90.33
23339;BME280;11841;49.368;20.962;2023-04-26T01:09:20;94975.63;;;6.72;89.90
23339;BME280;11841;49.368;20.962;2023-04-26T01:12:06;94970.81;;;6.63;89.45
23339;BME280;11841;49.368;20.962;2023-04-26T01:14:53;94965.34;;;6.64;89.58
23339;BME280;11841;49.368;20.962;2023-04-26T01:17:38;94982.97;;;6.64;90.06
23339;BME280;11841;49.368;20.962;2023-04-26T01:20:24;94975.47;;;6.67;89.96
23339;BME280;11841;49.368;20.962;2023-04-26T01:23:10;94966.78;;;6.67;90.13
23339;BME280;11841;49.368;20.962;2023-04-26T01:25:56;94982.53;;;6.73;90.14
23339;BME280;11841;49.368;20.962;2023-04-26T01:28:41;94985.34;;;6.78;90.00
23339;BME280;11841;49.368;20.962;2023-04-26T01:31:26;94990.44;;;6.73;90.00
23339;BME280;11841;49.368;20.962;2023-04-26T01:34:11;94999.59;;;6.64;90.02
23339;BME280;11841;49.368;20.962;2023-04-26T01:36:56;94995.13;;;6.65;90.00
23339;BME280;11841;49.368;20.962;2023-04-26T01:39:42;94980.53;;;6.62;89.97
23339;BME280;11841;49.368;20.962;2023-04-26T01:42:27;94986.41;;;6.64;89.66
23339;BME280;11841;49.368;20.962;2023-04-26T01:45:12;94987.03;;;6.66;89.30
23339;BME280;11841;49.368;20.962;2023-04-26T01:47:57;94981.38;;;6.63;89.54
23339;BME280;11841;49.368;20.962;2023-04-26T01:50:43;95010.97;;;6.58;88.99
23339;BME280;11841;49.368;20.962;2023-04-26T01:53:28;94995.56;;;6.55;89.26
23339;BME280;11841;49.368;20.962;2023-04-26T01:56:14;94988.88;;;6.59;89.83
23339;BME280;11841;49.368;20.962;2023-04-26T01:58:59;94985.81;;;6.62;89.51
23339;BME280;11841;49.368;20.962;2023-04-26T02:01:45;94993.13;;;6.60;89.41
23339;BME280;11841;49.368;20.962;2023-04-26T02:04:31;94993.09;;;6.67;89.38
23339;BME280;11841;49.368;20.962;2023-04-26T02:07:16;94997.56;;;6.66;89.44
23339;BME280;11841;49.368;20.962;2023-04-26T02:10:01;94995.34;;;6.63;88.99
23339;BME280;11841;49.368;20.962;2023-04-26T02:12:47;95003.25;;;6.63;89.29
23339;BME280;11841;49.368;20.962;2023-04-26T02:15:32;95014.00;;;6.62;88.92
23339;BME280;11841;49.368;20.962;2023-04-26T02:18:18;95012.41;;;6.54;88.33
23339;BME280;11841;49.368;20.962;2023-04-26T02:21:10;95001.44;;;6.57;88.32
23339;BME280;11841;49.368;20.962;2023-04-26T02:23:55;95005.53;;;6.53;88.19
23339;BME280;11841;49.368;20.962;2023-04-26T02:26:41;94995.16;;;6.52;87.81
23339;BME280;11841;49.368;20.962;2023-04-26T02:29:26;95003.28;;;6.50;87.68
23339;BME280;11841;49.368;20.962;2023-04-26T02:32:27;95021.53;;;6.45;85.36
23339;BME280;11841;49.368;20.962;2023-04-26T02:35:13;95010.22;;;6.38;84.97
23339;BME280;11841;49.368;20.962;2023-04-26T02:37:58;95012.66;;;6.40;85.22
23339;BME280;11841;49.368;20.962;2023-04-26T02:40:43;95034.91;;;6.44;83.94
23339;BME280;11841;49.368;20.962;2023-04-26T02:43:29;95028.44;;;6.46;83.15
23339;BME280;11841;49.368;20.962;2023-04-26T02:46:14;95024.16;;;6.45;82.87
23339;BME280;11841;49.368;20.962;2023-04-26T02:49:01;95025.22;;;6.38;80.63
23339;BME280;11841;49.368;20.962;2023-04-26T02:51:46;95011.84;;;6.39;80.53
23339;BME280;11841;49.368;20.962;2023-04-26T02:54:31;95027.84;;;6.38;80.95
23339;BME280;11841;49.368;20.962;2023-04-26T02:57:17;95023.97;;;6.40;80.74
23339;BME280;11841;49.368;20.962;2023-04-26T03:00:02;95018.28;;;6.43;81.12
23339;BME280;11841;49.368;20.962;2023-04-26T03:02:49;95027.22;;;6.42;79.83
23339;BME280;11841;49.368;20.962;2023-04-26T03:05:36;95036.97;;;6.29;79.96
23339;BME280;11841;49.368;20.962;2023-04-26T03:08:21;95029.47;;;6.32;80.25
23339;BME280;11841;49.368;20.962;2023-04-26T03:11:06;95024.22;;;6.32;80.14
23339;BME280;11841;49.368;20.962;2023-04-26T03:13:51;95030.50;;;6.31;79.30
23339;BME280;11841;49.368;20.962;2023-04-26T03:16:41;95027.69;;;6.20;78.31
23339;BME280;11841;49.368;20.962;2023-04-26T03:19:27;95038.00;;;6.14;78.59
23339;BME280;11841;49.368;20.962;2023-04-26T03:22:12;95028.09;;;6.17;78.82
23339;BME280;11841;49.368;20.962;2023-04-26T03:25:00;95035.38;;;6.21;78.68
23339;BME280;11841;49.368;20.962;2023-04-26T03:27:45;95039.81;;;6.27;78.63
23339;BME280;11841;49.368;20.962;2023-04-26T03:30:30;95050.97;;;6.23;77.96
23339;BME280;11841;49.368;20.962;2023-04-26T03:33:16;95052.00;;;6.15;77.82
23339;BME280;11841;49.368;20.962;2023-04-26T03:36:01;95057.91;;;6.04;78.11
23339;BME280;11841;49.368;20.962;2023-04-26T03:38:47;95050.38;;;6.01;77.91
23339;BME280;11841;49.368;20.962;2023-04-26T03:41:32;95064.56;;;6.00;77.73
23339;BME280;11841;49.368;20.962;2023-04-26T03:44:19;95062.53;;;6.08;78.30
23339;BME280;11841;49.368;20.962;2023-04-26T03:47:05;95064.75;;;6.05;77.79
23339;BME280;11841;49.368;20.962;2023-04-26T03:49:50;95068.63;;;6.09;78.10
23339;BME280;11841;49.368;20.962;2023-04-26T03:52:35;95078.34;;;6.02;77.41
23339;BME280;11841;49.368;20.962;2023-04-26T03:55:20;95090.03;;;5.80;75.95
23339;BME280;11841;49.368;20.962;2023-04-26T03:58:06;95085.78;;;5.72;76.05
23339;BME280;11841;49.368;20.962;2023-04-26T04:00:55;95090.22;;;5.72;76.54
23339;BME280;11841;49.368;20.962;2023-04-26T04:03:41;95084.97;;;5.65;75.80
23339;BME280;11841;49.368;20.962;2023-04-26T04:06:27;95093.25;;;5.69;76.82
23339;BME280;11841;49.368;20.962;2023-04-26T04:09:12;95087.41;;;5.73;77.10
23339;BME280;11841;49.368;20.962;2023-04-26T04:11:58;95101.16;;;5.75;77.13
23339;BME280;11841;49.368;20.962;2023-04-26T04:14:43;95098.13;;;5.65;76.90
23339;BME280;11841;49.368;20.962;2023-04-26T04:17:28;95100.31;;;5.62;77.60
23339;BME280;11841;49.368;20.962;2023-04-26T04:20:13;95114.09;;;5.57;77.34
23339;BME280;11841;49.368;20.962;2023-04-26T04:22:59;95102.53;;;5.45;77.45
23339;BME280;11841;49.368;20.962;2023-04-26T04:25:46;95109.03;;;5.43;77.75
23339;BME280;11841;49.368;20.962;2023-04-26T04:28:32;95110.63;;;5.44;77.82
23339;BME280;11841;49.368;20.962;2023-04-26T04:31:18;95116.72;;;5.44;77.64
23339;BME280;11841;49.368;20.962;2023-04-26T04:34:03;95124.41;;;5.52;77.66
23339;BME280;11841;49.368;20.962;2023-04-26T04:36:49;95127.22;;;5.51;77.03
23339;BME280;11841;49.368;20.962;2023-04-26T04:39:37;95121.56;;;5.47;76.99
23339;BME280;11841;49.368;20.962;2023-04-26T04:42:22;95135.09;;;5.44;77.10
23339;BME280;11841;49.368;20.962;2023-04-26T04:45:08;95127.38;;;5.36;77.01
23339;BME280;11841;49.368;20.962;2023-04-26T04:47:53;95144.78;;;5.31;77.12
23339;BME280;11841;49.368;20.962;2023-04-26T04:50:39;95147.84;;;5.41;77.20
23339;BME280;11841;49.368;20.962;2023-04-26T04:53:24;95136.91;;;5.44;76.20
23339;BME280;11841;49.368;20.962;2023-04-26T04:56:09;95139.53;;;5.44;75.46
23339;BME280;11841;49.368;20.962;2023-04-26T04:58:55;95142.78;;;5.46;76.03
23339;BME280;11841;49.368;20.962;2023-04-26T05:01:40;95143.81;;;5.51;76.01
23339;BME280;11841;49.368;20.962;2023-04-26T05:04:25;95155.53;;;5.49;75.87
23339;BME280;11841;49.368;20.962;2023-04-26T05:07:11;95154.50;;;5.43;75.47
23339;BME280;11841;49.368;20.962;2023-04-26T05:09:59;95163.22;;;5.44;75.97
23339;BME280;11841;49.368;20.962;2023-04-26T05:12:45;95168.03;;;5.34;75.39
23339;BME280;11841;49.368;20.962;2023-04-26T05:15:30;95170.47;;;5.42;76.24
23339;BME280;11841;49.368;20.962;2023-04-26T05:18:16;95170.47;;;5.42;75.86
23339;BME280;11841;49.368;20.962;2023-04-26T05:21:01;95167.50;;;5.51;75.56
23339;BME280;11841;49.368;20.962;2023-04-26T05:23:46;95174.97;;;5.54;74.93
23339;BME280;11841;49.368;20.962;2023-04-26T05:26:33;95180.22;;;5.48;75.73
23339;BME280;11841;49.368;20.962;2023-04-26T05:29:18;95182.00;;;5.41;75.42
23339;BME280;11841;49.368;20.962;2023-04-26T05:32:04;95182.63;;;5.43;76.06
23339;BME280;11841;49.368;20.962;2023-04-26T05:34:49;95181.19;;;5.40;76.21
23339;BME280;11841;49.368;20.962;2023-04-26T05:37:35;95185.47;;;5.48;74.55
23339;BME280;11841;49.368;20.962;2023-04-26T05:40:20;95186.47;;;5.53;75.65
23339;BME280;11841;49.368;20.962;2023-04-26T05:43:06;95199.66;;;5.60;74.57
23339;BME280;11841;49.368;20.962;2023-04-26T05:45:52;95207.91;;;5.44;73.17
23339;BME280;11841;49.368;20.962;2023-04-26T05:48:37;95191.91;;;5.39;73.78
23339;BME280;11841;49.368;20.962;2023-04-26T05:51:23;95193.91;;;5.37;73.24
23339;BME280;11841;49.368;20.962;2023-04-26T05:54:08;95203.22;;;5.33;73.31
23339;BME280;11841;49.368;20.962;2023-04-26T05:56:53;95193.91;;;5.37;73.39
23339;BME280;11841;49.368;20.962;2023-04-26T05:59:39;95206.44;;;5.35;73.37
23339;BME280;11841;49.368;20.962;2023-04-26T06:02:25;95207.69;;;5.39;73.01
23339;BME280;11841;49.368;20.962;2023-04-26T06:05:10;95204.25;;;5.45;73.12
23339;BME280;11841;49.368;20.962;2023-04-26T06:07:57;95210.53;;;5.44;72.83
23339;BME280;11841;49.368;20.962;2023-04-26T06:10:42;95212.94;;;5.45;72.34
23339;BME280;11841;49.368;20.962;2023-04-26T06:13:27;95212.94;;;5.45;72.09
23339;BME280;11841;49.368;20.962;2023-04-26T06:16:13;95210.56;;;5.57;72.96
23339;BME280;11841;49.368;20.962;2023-04-26T06:18:58;95218.22;;;5.52;71.56
23339;BME280;11841;49.368;20.962;2023-04-26T06:21:44;95205.28;;;5.57;71.44
23339;BME280;11841;49.368;20.962;2023-04-26T06:24:29;95208.34;;;5.60;71.91
23339;BME280;11841;49.368;20.962;2023-04-26T06:27:15;95202.50;;;5.65;72.59
23339;BME280;11841;49.368;20.962;2023-04-26T06:30:00;95208.56;;;5.72;73.16
23339;BME280;11841;49.368;20.962;2023-04-26T06:32:45;95212.03;;;5.79;73.30
23339;BME280;11841;49.368;20.962;2023-04-26T06:35:31;95228.06;;;5.84;73.49
23339;BME280;11841;49.368;20.962;2023-04-26T06:38:16;95212.66;;;5.81;71.44
23339;BME280;11841;49.368;20.962;2023-04-26T06:41:01;95219.56;;;5.82;71.45
23339;BME280;11841;49.368;20.962;2023-04-26T06:43:47;95232.50;;;5.77;70.65
23339;BME280;11841;49.368;20.962;2023-04-26T06:46:32;95216.72;;;5.77;70.81
23339;BME280;11841;49.368;20.962;2023-04-26T06:49:18;95223.63;;;5.84;71.16
23339;BME280;11841;49.368;20.962;2023-04-26T06:52:03;95224.25;;;5.93;70.95
23339;BME280;11841;49.368;20.962;2023-04-26T06:54:53;95221.41;;;5.94;70.37
23339;BME280;11841;49.368;20.962;2023-04-26T06:57:41;95220.22;;;6.03;70.68
23339;BME280;11841;49.368;20.962;2023-04-26T07:00:27;95224.88;;;6.08;70.34
23339;BME280;11841;49.368;20.962;2023-04-26T07:03:12;95229.34;;;6.14;70.52
23339;BME280;11841;49.368;20.962;2023-04-26T07:05:58;95221.44;;;6.21;70.34
23339;BME280;11841;49.368;20.962;2023-04-26T07:08:43;95232.19;;;6.19;69.66
23339;BME280;11841;49.368;20.962;2023-04-26T07:11:29;95224.88;;;6.21;69.11
23339;BME280;11841;49.368;20.962;2023-04-26T07:14:15;95248.16;;;6.11;67.87
23339;BME280;11841;49.368;20.962;2023-04-26T07:17:01;95245.50;;;6.11;68.55
23339;BME280;11841;49.368;20.962;2023-04-26T07:19:47;95247.94;;;6.06;68.63
23339;BME280;11841;49.368;20.962;2023-04-26T07:22:32;95239.84;;;6.07;68.19
23339;BME280;11841;49.368;20.962;2023-04-26T07:25:17;95232.97;;;6.06;68.42
23339;BME280;11841;49.368;20.962;2023-04-26T07:28:02;95228.94;;;6.04;67.32
23339;BME280;11841;49.368;20.962;2023-04-26T07:30:48;95259.47;;;5.98;66.83
23339;BME280;11841;49.368;20.962;2023-04-26T07:33:33;95255.00;;;5.99;66.89
23339;BME280;11841;49.368;20.962;2023-04-26T07:36:19;95264.09;;;5.90;67.49
23339;BME280;11841;49.368;20.962;2023-04-26T07:39:07;95258.00;;;5.83;67.49
23339;BME280;11841;49.368;20.962;2023-04-26T07:41:54;95272.56;;;5.85;67.85
23339;BME280;11841;49.368;20.962;2023-04-26T07:44:39;95247.50;;;5.96;67.69
23339;BME280;11841;49.368;20.962;2023-04-26T07:47:24;95255.84;;;6.06;67.27
23339;BME280;11841;49.368;20.962;2023-04-26T07:50:10;95255.66;;;6.14;67.92
23339;BME280;11841;49.368;20.962;2023-04-26T07:52:56;95252.41;;;6.19;67.34
23339;BME280;11841;49.368;20.962;2023-04-26T07:55:41;95257.06;;;6.23;67.72
23339;BME280;11841;49.368;20.962;2023-04-26T07:58:26;95251.03;;;6.29;68.29
23339;BME280;11841;49.368;20.962;2023-04-26T08:01:12;95258.72;;;6.24;68.07
23339;BME280;11841;49.368;20.962;2023-04-26T08:03:59;95260.53;;;6.24;68.76
23339;BME280;11841;49.368;20.962;2023-04-26T08:06:45;95279.97;;;6.36;68.47
23339;BME280;11841;49.368;20.962;2023-04-26T08:09:32;95265.38;;;6.33;67.97
23339;BME280;11841;49.368;20.962;2023-04-26T08:12:17;95260.53;;;6.37;66.79
23339;BME280;11841;49.368;20.962;2023-04-26T08:15:04;95275.53;;;6.43;67.12
23339;BME280;11841;49.368;20.962;2023-04-26T08:17:50;95276.53;;;6.48;66.10
23339;BME280;11841;49.368;20.962;2023-04-26T08:20:37;95275.53;;;6.49;65.04
23339;BME280;11841;49.368;20.962;2023-04-26T08:23:22;95275.13;;;6.59;64.99
23339;BME280;11841;49.368;20.962;2023-04-26T08:26:08;95273.50;;;6.64;64.90
23339;BME280;11841;49.368;20.962;2023-04-26T08:28:53;95272.91;;;6.75;65.84
23339;BME280;11841;49.368;20.962;2023-04-26T08:31:38;95287.69;;;6.76;65.31
23339;BME280;11841;49.368;20.962;2023-04-26T08:34:24;95279.81;;;6.63;63.80
23339;BME280;11841;49.368;20.962;2023-04-26T08:37:09;95288.50;;;6.57;64.90
23339;BME280;11841;49.368;20.962;2023-04-26T08:39:55;95276.34;;;6.63;65.14
23339;BME280;11841;49.368;20.962;2023-04-26T08:42:41;95284.88;;;6.71;65.15
23339;BME280;11841;49.368;20.962;2023-04-26T08:45:28;95273.50;;;6.77;64.44
23339;BME280;11841;49.368;20.962;2023-04-26T08:48:13;95274.13;;;6.73;63.03
23339;BME280;11841;49.368;20.962;2023-04-26T08:51:00;95269.47;;;6.75;63.64
23339;BME280;11841;49.368;20.962;2023-04-26T08:53:47;95275.53;;;6.82;62.50
23339;BME280;11841;49.368;20.962;2023-04-26T08:56:34;95288.09;;;6.80;61.82
23339;BME280;11841;49.368;20.962;2023-04-26T08:59:19;95280.63;;;6.77;61.29
23339;BME280;11841;49.368;20.962;2023-04-26T09:02:06;95284.44;;;6.74;60.74
23339;BME280;11841;49.368;20.962;2023-04-26T09:04:51;95284.44;;;6.74;60.52
23339;BME280;11841;49.368;20.962;2023-04-26T09:07:44;95297.41;;;6.69;60.21
23339;BME280;11841;49.368;20.962;2023-04-26T09:10:30;95281.19;;;6.72;58.97
23339;BME280;11841;49.368;20.962;2023-04-26T09:13:16;95278.78;;;6.77;60.75
23339;BME280;11841;49.368;20.962;2023-04-26T09:16:02;95277.56;;;6.86;59.95
23339;BME280;11841;49.368;20.962;2023-04-26T09:18:49;95282.63;;;6.81;60.54
23339;BME280;11841;49.368;20.962;2023-04-26T09:21:44;95283.47;;;6.75;61.95
23339;BME280;11841;49.368;20.962;2023-04-26T09:24:45;95289.72;;;6.74;62.65
23339;BME280;11841;49.368;20.962;2023-04-26T09:27:42;95295.59;;;6.83;62.74
23339;BME280;11841;49.368;20.962;2023-04-26T09:30:28;95298.22;;;6.89;60.47
23339;BME280;11841;49.368;20.962;2023-04-26T09:33:14;95299.03;;;6.96;60.36
23339;BME280;11841;49.368;20.962;2023-04-26T09:36:12;95296.59;;;7.01;61.08
23339;BME280;11841;49.368;20.962;2023-04-26T09:38:57;95303.09;;;7.05;61.32
23339;BME280;11841;49.368;20.962;2023-04-26T09:41:43;95323.16;;;7.06;62.03
23339;BME280;11841;49.368;20.962;2023-04-26T09:44:29;95298.03;;;7.04;60.09
23339;BME280;11841;49.368;20.962;2023-04-26T09:47:15;95294.97;;;7.13;60.54
23339;BME280;11841;49.368;20.962;2023-04-26T09:50:01;95293.34;;;7.19;60.04
23339;BME280;11841;49.368;20.962;2023-04-26T09:52:46;95305.09;;;7.16;59.33
23339;BME280;11841;49.368;20.962;2023-04-26T09:55:32;95290.91;;;7.17;58.88
23339;BME280;11841;49.368;20.962;2023-04-26T09:58:20;95290.09;;;7.17;60.09
23339;BME280;11841;49.368;20.962;2023-04-26T10:01:07;95286.44;;;7.24;61.04
23339;BME280;11841;49.368;20.962;2023-04-26T10:03:52;95294.28;;;7.44;62.55
23339;BME280;11841;49.368;20.962;2023-04-26T10:06:39;95297.50;;;7.53;61.47
23339;BME280;11841;49.368;20.962;2023-04-26T10:09:25;95286.31;;;7.57;62.59
23339;BME280;11841;49.368;20.962;2023-04-26T10:12:12;95285.09;;;7.60;60.92
23339;BME280;11841;49.368;20.962;2023-04-26T10:14:58;95299.13;;;7.60;60.47
23339;BME280;11841;49.368;20.962;2023-04-26T10:17:43;95294.03;;;7.59;60.51
23339;BME280;11841;49.368;20.962;2023-04-26T10:20:30;95294.03;;;7.59;60.88
23339;BME280;11841;49.368;20.962;2023-04-26T10:23:23;95299.50;;;7.57;60.53
23339;BME280;11841;49.368;20.962;2023-04-26T10:26:46;95303.59;;;7.47;60.05
23339;BME280;11841;49.368;20.962;2023-04-26T10:39:18;95327.22;;;7.09;62.89
23339;BME280;11841;49.368;20.962;2023-04-26T10:45:27;95318.06;;;7.11;63.66
23339;BME280;11841;49.368;20.962;2023-04-26T10:48:42;95327.41;;;7.14;63.43
23339;BME280;11841;49.368;20.962;2023-04-26T10:51:27;95321.72;;;7.10;63.59
23339;BME280;11841;49.368;20.962;2023-04-26T10:54:12;95314.44;;;7.12;63.22
23339;BME280;11841;49.368;20.962;2023-04-26T10:56:58;95310.16;;;7.24;64.07
23339;BME280;11841;49.368;20.962;2023-04-26T11:03:02;95308.88;;;7.40;62.96
23339;BME280;11841;49.368;20.962;2023-04-26T11:05:52;95309.06;;;7.45;62.06
23339;BME280;11841;49.368;20.962;2023-04-26T11:08:38;95310.47;;;7.54;62.26
23339;BME280;11841;49.368;20.962;2023-04-26T11:11:25;95313.13;;;7.54;61.68
23339;BME280;11841;49.368;20.962;2023-04-26T11:14:13;95312.50;;;7.59;61.31
23339;BME280;11841;49.368;20.962;2023-04-26T11:16:58;95326.13;;;7.49;61.16
23339;BME280;11841;49.368;20.962;2023-04-26T11:19:45;95327.34;;;7.40;62.51
23339;BME280;11841;49.368;20.962;2023-04-26T11:22:31;95323.34;;;7.31;62.49
23339;BME280;11841;49.368;20.962;2023-04-26T11:25:18;95328.59;;;7.38;62.77
23339;BME280;11841;49.368;20.962;2023-04-26T11:28:04;95320.44;;;7.46;62.61
23339;BME280;11841;49.368;20.962;2023-04-26T11:30:51;95332.81;;;7.52;61.66
23339;BME280;11841;49.368;20.962;2023-04-26T11:33:36;95337.88;;;7.47;61.95
23339;BME280;11841;49.368;20.962;2023-04-26T11:36:22;95339.75;;;7.40;61.13
23339;BME280;11841;49.368;20.962;2023-04-26T11:39:08;95333.25;;;7.35;61.63
23339;BME280;11841;49.368;20.962;2023-04-26T11:42:06;95336.72;;;7.29;61.03
23339;BME280;11841;49.368;20.962;2023-04-26T11:44:52;95338.94;;;7.32;60.95
23339;BME280;11841;49.368;20.962;2023-04-26T11:47:38;95326.34;;;7.41;61.23
23339;BME280;11841;49.368;20.962;2023-04-26T11:50:24;95324.50;;;7.48;59.89
23339;BME280;11841;49.368;20.962;2023-04-26T11:53:11;95329.34;;;7.58;61.21
23339;BME280;11841;49.368;20.962;2023-04-26T11:55:56;95336.03;;;7.67;61.39
23339;BME280;11841;49.368;20.962;2023-04-26T11:58:49;95337.44;;;7.63;60.10
23339;BME280;11841;49.368;20.962;2023-04-26T12:01:35;95342.91;;;7.68;59.86
23339;BME280;11841;49.368;20.962;2023-04-26T12:04:28;95356.09;;;7.74;60.24
23339;BME280;11841;49.368;20.962;2023-04-26T12:07:17;95359.53;;;7.75;60.81
23339;BME280;11841;49.368;20.962;2023-04-26T12:10:17;95360.53;;;7.80;60.93
23339;BME280;11841;49.368;20.962;2023-04-26T12:13:03;95365.63;;;7.82;61.66
23339;BME280;11841;49.368;20.962;2023-04-26T12:15:48;95358.88;;;7.86;62.19
23339;BME280;11841;49.368;20.962;2023-04-26T12:18:35;95363.78;;;7.76;61.32
23339;BME280;11841;49.368;20.962;2023-04-26T12:21:20;95355.69;;;7.71;62.03
23339;BME280;11841;49.368;20.962;2023-04-26T12:24:05;95360.16;;;7.77;62.16
23339;BME280;11841;49.368;20.962;2023-04-26T12:26:51;95353.22;;;7.76;61.68
23339;BME280;11841;49.368;20.962;2023-04-26T12:29:36;95349.78;;;7.82;60.81
23339;BME280;11841;49.368;20.962;2023-04-26T12:32:22;95344.25;;;7.90;58.82
23339;BME280;11841;49.368;20.962;2023-04-26T12:35:07;95364.19;;;7.79;58.43
23339;BME280;11841;49.368;20.962;2023-04-26T12:37:52;95371.50;;;7.71;59.19
23339;BME280;11841;49.368;20.962;2023-04-26T12:40:41;95371.94;;;7.68;61.18
23339;BME280;11841;49.368;20.962;2023-04-26T12:43:30;95386.75;;;7.62;62.03
23339;BME280;11841;49.368;20.962;2023-04-26T12:46:15;95410.94;;;7.40;63.96
23339;BME280;11841;49.368;20.962;2023-04-26T12:49:02;95406.50;;;7.14;64.76
23339;BME280;11841;49.368;20.962;2023-04-26T12:51:47;95409.13;;;7.07;64.39
23339;BME280;11841;49.368;20.962;2023-04-26T12:54:32;95398.97;;;6.91;62.23
23339;BME280;11841;49.368;20.962;2023-04-26T12:57:18;95397.16;;;6.85;61.98
23339;BME280;11841;49.368;20.962;2023-04-26T13:00:06;95399.19;;;6.83;60.81
23339;BME280;11841;49.368;20.962;2023-04-26T13:02:51;95402.38;;;6.72;57.41
23339;BME280;11841;49.368;20.962;2023-04-26T13:05:37;95403.19;;;6.66;56.60
23339;BME280;11841;49.368;20.962;2023-04-26T13:08:22;95398.34;;;6.63;56.49
23339;BME280;11841;49.368;20.962;2023-04-26T13:11:08;95393.50;;;6.73;56.82
23339;BME280;11841;49.368;20.962;2023-04-26T13:13:53;95389.84;;;6.87;57.19
23339;BME280;11841;49.368;20.962;2023-04-26T13:16:38;95392.47;;;6.87;55.74
23339;BME280;11841;49.368;20.962;2023-04-26T13:19:27;95393.28;;;6.81;56.08
23339;BME280;11841;49.368;20.962;2023-04-26T13:22:14;95383.38;;;6.90;57.07
23339;BME280;11841;49.368;20.962;2023-04-26T13:24:59;95381.97;;;7.00;56.56
23339;BME280;11841;49.368;20.962;2023-04-26T13:27:45;95391.47;;;7.14;56.44
23339;BME280;11841;49.368;20.962;2023-04-26T13:30:31;95382.78;;;7.14;56.16
23339;BME280;11841;49.368;20.962;2023-04-26T13:33:16;95381.34;;;7.24;57.08
23339;BME280;11841;49.368;20.962;2023-04-26T13:36:04;95387.81;;;7.42;57.36
23339;BME280;11841;49.368;20.962;2023-04-26T13:38:49;95386.34;;;7.59;57.90
23339;BME280;11841;49.368;20.962;2023-04-26T13:41:35;95381.47;;;7.69;56.65
23339;BME280;11841;49.368;20.962;2023-04-26T13:44:21;95389.78;;;7.66;56.80
23339;BME280;11841;49.368;20.962;2023-04-26T13:47:06;95389.59;;;7.67;57.29
23339;BME280;11841;49.368;20.962;2023-04-26T13:49:52;95394.25;;;7.72;57.03
23339;BME280;11841;49.368;20.962;2023-04-26T13:52:37;95391.22;;;7.75;56.73
23339;BME280;11841;49.368;20.962;2023-04-26T13:55:23;95393.63;;;7.76;56.41
23339;BME280;11841;49.368;20.962;2023-04-26T13:58:08;95400.72;;;7.76;55.90
23339;BME280;11841;49.368;20.962;2023-04-26T14:00:53;95408.66;;;7.76;55.89
23339;BME280;11841;49.368;20.962;2023-04-26T14:03:39;95400.53;;;7.77;56.58
23339;BME280;11841;49.368;20.962;2023-04-26T14:06:25;95399.50;;;7.85;56.95
23339;BME280;11841;49.368;20.962;2023-04-26T14:09:11;95393.81;;;7.88;56.78
23339;BME280;11841;49.368;20.962;2023-04-26T14:11:56;95400.34;;;7.79;55.92
23339;BME280;11841;49.368;20.962;2023-04-26T14:14:53;95400.16;;;7.74;55.36
23339;BME280;11841;49.368;20.962;2023-04-26T14:17:38;95399.13;;;7.75;55.24
23339;BME280;11841;49.368;20.962;2023-04-26T14:20:23;95405.63;;;7.79;55.36
23339;BME280;11841;49.368;20.962;2023-04-26T14:23:08;95415.34;;;7.78;55.05
23339;BME280;11841;49.368;20.962;2023-04-26T14:25:54;95400.94;;;7.74;55.29
23339;BME280;11841;49.368;20.962;2023-04-26T14:28:39;95404.78;;;7.78;55.68
23339;BME280;11841;49.368;20.962;2023-04-26T14:31:25;95423.06;;;7.80;54.60
23339;BME280;11841;49.368;20.962;2023-04-26T14:34:12;95417.56;;;7.81;54.58
23339;BME280;11841;49.368;20.962;2023-04-26T14:36:57;95410.91;;;7.66;54.38
23339;BME280;11841;49.368;20.962;2023-04-26T14:39:45;95417.44;;;7.57;54.17
23339;BME280;11841;49.368;20.962;2023-04-26T14:42:30;95414.78;;;7.63;54.84
23339;BME280;11841;49.368;20.962;2023-04-26T14:45:16;95415.97;;;7.67;55.72
23339;BME280;11841;49.368;20.962;2023-04-26T14:48:01;95414.94;;;7.75;55.11
23339;BME280;11841;49.368;20.962;2023-04-26T14:50:46;95419.00;;;7.77;55.27
23339;BME280;11841;49.368;20.962;2023-04-26T14:53:32;95424.28;;;7.84;55.15
23339;BME280;11841;49.368;20.962;2023-04-26T14:56:17;95433.59;;;7.86;54.65